sensor_id;sensor_type;location;lat;lon;timestamp;pressure;altitude;pressure_sealevel;temperature;humidity
46111;BME280;31849;55.992;37.252;2022-09-21T00:02:46;99031.72;;;7.09;71.63
46111;BME280;31849;55.992;37.252;2022-09-21T00:07:49;99029.97;;;7.09;71.74
46111;BME280;31849;55.992;37.252;2022-09-21T00:12:56;99022.22;;;7.09;70.88
46111;BME280;31849;55.992;37.252;2022-09-21T00:18:01;99029.94;;;7.00;71.76
46111;BME280;31849;55.992;37.252;2022-09-21T00:23:05;99032.38;;;6.78;71.12
46111;BME280;31849;55.992;37.252;2022-09-21T00:28:10;99039.28;;;6.76;71.57
46111;BME280;31849;55.992;37.252;2022-09-21T00:33:14;99031.50;;;6.68;71.91
46111;BME280;31849;55.992;37.252;2022-09-21T00:38:18;99034.94;;;6.72;71.08
46111;BME280;31849;55.992;37.252;2022-09-21T00:43:23;99034.94;;;6.74;71.75
46111;BME280;31849;55.992;37.252;2022-09-21T00:48:27;99039.28;;;6.79;71.56
46111;BME280;31849;55.992;37.252;2022-09-21T00:53:31;99042.72;;;6.77;71.36
46111;BME280;31849;55.992;37.252;2022-09-21T00:58:40;99053.06;;;6.78;71.21
46111;BME280;31849;55.992;37.252;2022-09-21T01:03:47;99017.66;;;6.62;70.89
46111;BME280;31849;55.992;37.252;2022-09-21T01:08:54;99050.47;;;6.78;71.37
46111;BME280;31849;55.992;37.252;2022-09-21T01:14:21;99049.63;;;6.76;71.13
46111;BME280;31849;55.992;37.252;2022-09-21T01:19:45;99059.13;;;6.79;70.76
46111;BME280;31849;55.992;37.252;2022-09-21T01:25:03;99056.53;;;6.79;70.81
46111;BME280;31849;55.992;37.252;2022-09-21T01:30:14;99046.19;;;6.80;70.56
46111;BME280;31849;55.992;37.252;2022-09-21T01:35:21;99057.41;;;6.82;70.15
46111;BME280;31849;55.992;37.252;2022-09-21T01:40:30;99045.38;;;6.86;71.03
46111;BME280;31849;55.992;37.252;2022-09-21T01:45:39;99049.69;;;6.89;70.40
46111;BME280;31849;55.992;37.252;2022-09-21T01:50:49;99054.00;;;6.90;70.72
46111;BME280;31849;55.992;37.252;2022-09-21T01:55:57;99053.09;;;6.81;70.86
46111;BME280;31849;55.992;37.252;2022-09-21T02:01:04;99051.38;;;6.80;70.34
46111;BME280;31849;55.992;37.252;2022-09-21T02:06:12;99053.91;;;6.73;71.54
46111;BME280;31849;55.992;37.252;2022-09-21T02:11:18;99061.59;;;6.68;71.03
46111;BME280;31849;55.992;37.252;2022-09-21T02:16:36;99064.25;;;6.76;71.13
46111;BME280;31849;55.992;37.252;2022-09-21T02:21:50;99074.56;;;6.71;71.14
46111;BME280;31849;55.992;37.252;2022-09-21T02:27:02;99069.31;;;6.62;70.45
46111;BME280;31849;55.992;37.252;2022-09-21T02:32:14;99070.13;;;6.55;71.10
46111;BME280;31849;55.992;37.252;2022-09-21T02:37:24;99065.78;;;6.46;70.55
46111;BME280;31849;55.992;37.252;2022-09-21T02:42:37;99067.44;;;6.42;71.35
46111;BME280;31849;55.992;37.252;2022-09-21T02:47:47;99068.28;;;6.40;71.38
46111;BME280;31849;55.992;37.252;2022-09-21T02:52:53;99070.03;;;6.44;71.53
46111;BME280;31849;55.992;37.252;2022-09-21T02:57:57;99071.81;;;6.51;70.51
46111;BME280;31849;55.992;37.252;2022-09-21T03:03:15;99077.06;;;6.62;70.99
46111;BME280;31849;55.992;37.252;2022-09-21T03:08:19;99084.00;;;6.66;70.45
46111;BME280;31849;55.992;37.252;2022-09-21T03:13:23;99078.94;;;6.81;69.95
46111;BME280;31849;55.992;37.252;2022-09-21T03:18:29;99079.03;;;6.97;70.57
46111;BME280;31849;55.992;37.252;2022-09-21T03:23:33;99073.00;;;6.96;69.99
46111;BME280;31849;55.992;37.252;2022-09-21T03:28:36;99073.88;;;7.00;70.13
46111;BME280;31849;55.992;37.252;2022-09-21T03:33:42;99078.22;;;7.07;70.25
46111;BME280;31849;55.992;37.252;2022-09-21T03:38:45;99083.44;;;7.16;69.47
46111;BME280;31849;55.992;37.252;2022-09-21T03:43:50;99057.59;;;7.13;69.48
46111;BME280;31849;55.992;37.252;2022-09-21T03:48:54;99087.06;;;7.55;69.21
46111;BME280;31849;55.992;37.252;2022-09-21T03:53:59;99083.72;;;7.92;68.87
46111;BME280;31849;55.992;37.252;2022-09-21T03:59:02;99075.19;;;8.49;67.10
46111;BME280;31849;55.992;37.252;2022-09-21T04:04:12;99078.66;;;8.58;66.97
46111;BME280;31849;55.992;37.252;2022-09-21T04:09:17;99084.69;;;8.60;66.99
46111;BME280;31849;55.992;37.252;2022-09-21T04:14:21;99080.34;;;8.78;67.23
46111;BME280;31849;55.992;37.252;2022-09-21T04:19:27;99085.50;;;9.04;66.99
46111;BME280;31849;55.992;37.252;2022-09-21T04:24:31;99082.03;;;9.14;66.90
46111;BME280;31849;55.992;37.252;2022-09-21T04:29:34;99083.72;;;9.28;66.28
46111;BME280;31849;55.992;37.252;2022-09-21T04:34:40;99087.06;;;9.50;66.37
46111;BME280;31849;55.992;37.252;2022-09-21T04:39:43;99083.56;;;9.65;66.13
46111;BME280;31849;55.992;37.252;2022-09-21T04:44:47;99080.06;;;9.66;66.28
46111;BME280;31849;55.992;37.252;2022-09-21T04:49:52;99084.28;;;9.89;66.20
46111;BME280;31849;55.992;37.252;2022-09-21T04:54:56;99083.28;;;10.11;65.95
46111;BME280;31849;55.992;37.252;2022-09-21T05:00:00;99079.69;;;10.31;65.83
46111;BME280;31849;55.992;37.252;2022-09-21T05:05:07;99083.84;;;10.55;65.68
46111;BME280;31849;55.992;37.252;2022-09-21T05:10:10;99081.06;;;10.77;65.42
46111;BME280;31849;55.992;37.252;2022-09-21T05:15:14;99079.97;;;10.99;65.34
46111;BME280;31849;55.992;37.252;2022-09-21T05:20:19;99081.41;;;11.26;65.27
46111;BME280;31849;55.992;37.252;2022-09-21T05:25:22;99081.31;;;11.37;65.55
46111;BME280;31849;55.992;37.252;2022-09-21T05:30:27;99078.50;;;11.54;65.47
46111;BME280;31849;55.992;37.252;2022-09-21T05:35:37;99082.50;;;11.78;64.84
46111;BME280;31849;55.992;37.252;2022-09-21T05:40:45;99080.66;;;11.88;65.10
46111;BME280;31849;55.992;37.252;2022-09-21T05:45:56;99085.56;;;12.11;64.37
46111;BME280;31849;55.992;37.252;2022-09-21T05:51:09;99097.28;;;12.42;63.78
46111;BME280;31849;55.992;37.252;2022-09-21T05:56:27;99093.16;;;12.81;63.35
46111;BME280;31849;55.992;37.252;2022-09-21T06:01:43;99094.31;;;13.13;62.49
46111;BME280;31849;55.992;37.252;2022-09-21T06:06:51;99074.31;;;13.98;60.60
46111;BME280;31849;55.992;37.252;2022-09-21T06:11:56;99094.53;;;14.67;59.13
46111;BME280;31849;55.992;37.252;2022-09-21T06:17:01;99074.09;;;15.14;58.09
46111;BME280;31849;55.992;37.252;2022-09-21T06:22:07;99092.28;;;15.52;57.08
46111;BME280;31849;55.992;37.252;2022-09-21T06:27:11;99094.50;;;15.65;56.34
46111;BME280;31849;55.992;37.252;2022-09-21T06:32:15;99098.41;;;15.19;57.18
46111;BME280;31849;55.992;37.252;2022-09-21T06:37:23;99095.38;;;14.67;57.89
46111;BME280;31849;55.992;37.252;2022-09-21T06:42:27;99109.03;;;14.42;58.85
46111;BME280;31849;55.992;37.252;2022-09-21T06:47:30;99095.72;;;14.52;57.86
46111;BME280;31849;55.992;37.252;2022-09-21T06:52:35;99101.03;;;14.86;56.95
46111;BME280;31849;55.992;37.252;2022-09-21T06:57:39;99085.56;;;15.10;56.98
46111;BME280;31849;55.992;37.252;2022-09-21T07:02:43;99098.94;;;15.63;55.87
46111;BME280;31849;55.992;37.252;2022-09-21T07:07:48;99091.13;;;17.02;52.80
46111;BME280;31849;55.992;37.252;2022-09-21T07:12:54;99078.00;;;17.98;50.62
46111;BME280;31849;55.992;37.252;2022-09-21T07:17:58;99087.97;;;18.12;49.88
46111;BME280;31849;55.992;37.252;2022-09-21T07:23:12;99092.41;;;19.78;46.90
46111;BME280;31849;55.992;37.252;2022-09-21T07:28:16;99092.06;;;21.46;44.34
46111;BME280;31849;55.992;37.252;2022-09-21T07:33:20;99096.75;;;22.22;42.33
46111;BME280;31849;55.992;37.252;2022-09-21T07:38:25;99092.16;;;24.32;39.19
46111;BME280;31849;55.992;37.252;2022-09-21T07:43:29;99092.38;;;25.22;37.49
46111;BME280;31849;55.992;37.252;2022-09-21T07:48:34;99104.03;;;25.34;36.69
46111;BME280;31849;55.992;37.252;2022-09-21T07:53:42;99109.34;;;24.27;37.76
46111;BME280;31849;55.992;37.252;2022-09-21T07:58:46;99102.75;;;22.88;39.31
46111;BME280;31849;55.992;37.252;2022-09-21T08:04:10;99098.97;;;21.49;40.94
46111;BME280;31849;55.992;37.252;2022-09-21T08:09:14;99099.75;;;20.82;42.26
46111;BME280;31849;55.992;37.252;2022-09-21T08:14:19;99099.38;;;19.98;43.88
46111;BME280;31849;55.992;37.252;2022-09-21T08:19:27;99089.56;;;19.03;45.52
46111;BME280;31849;55.992;37.252;2022-09-21T08:24:33;99088.97;;;18.74;46.08
46111;BME280;31849;55.992;37.252;2022-09-21T08:29:37;99092.97;;;18.62;47.03
46111;BME280;31849;55.992;37.252;2022-09-21T08:34:42;99095.09;;;19.37;46.15
46111;BME280;31849;55.992;37.252;2022-09-21T08:39:47;99089.31;;;19.68;45.71
46111;BME280;31849;55.992;37.252;2022-09-21T08:44:55;99060.47;;;19.84;44.41
46111;BME280;31849;55.992;37.252;2022-09-21T08:50:00;99085.56;;;19.93;44.53
46111;BME280;31849;55.992;37.252;2022-09-21T08:55:15;99082.81;;;20.50;43.72
46111;BME280;31849;55.992;37.252;2022-09-21T09:00:20;99084.47;;;20.16;45.02
46111;BME280;31849;55.992;37.252;2022-09-21T09:05:35;99075.91;;;20.11;44.63
46111;BME280;31849;55.992;37.252;2022-09-21T09:10:53;99081.06;;;19.95;44.92
46111;BME280;31849;55.992;37.252;2022-09-21T09:16:06;99080.38;;;19.51;45.45
46111;BME280;31849;55.992;37.252;2022-09-21T09:21:18;99066.50;;;19.67;45.61
46111;BME280;31849;55.992;37.252;2022-09-21T09:26:37;99073.81;;;19.81;45.01
46111;BME280;31849;55.992;37.252;2022-09-21T09:31:44;99060.59;;;19.22;45.76
46111;BME280;31849;55.992;37.252;2022-09-21T09:36:52;99072.16;;;18.99;45.53
46111;BME280;31849;55.992;37.252;2022-09-21T09:42:26;99062.31;;;19.23;45.70
46111;BME280;31849;55.992;37.252;2022-09-21T09:47:42;99056.91;;;19.06;45.90
46111;BME280;31849;55.992;37.252;2022-09-21T09:52:49;99058.09;;;18.78;46.77
46111;BME280;31849;55.992;37.252;2022-09-21T09:57:56;99054.22;;;18.87;46.58
46111;BME280;31849;55.992;37.252;2022-09-21T10:03:00;99061.88;;;18.93;46.06
46111;BME280;31849;55.992;37.252;2022-09-21T10:08:04;99053.63;;;18.37;46.67
46111;BME280;31849;55.992;37.252;2022-09-21T10:13:13;99049.72;;;18.03;47.21
46111;BME280;31849;55.992;37.252;2022-09-21T10:18:21;99049.53;;;18.08;46.86
46111;BME280;31849;55.992;37.252;2022-09-21T10:23:27;99049.00;;;18.00;47.11
46111;BME280;31849;55.992;37.252;2022-09-21T10:28:33;99042.19;;;17.70;47.59
46111;BME280;31849;55.992;37.252;2022-09-21T10:33:48;99037.13;;;17.66;48.05
46111;BME280;31849;55.992;37.252;2022-09-21T10:38:52;99043.13;;;17.46;48.41
46111;BME280;31849;55.992;37.252;2022-09-21T10:43:57;99045.53;;;17.52;48.38
46111;BME280;31849;55.992;37.252;2022-09-21T10:49:02;99039.81;;;17.64;48.29
46111;BME280;31849;55.992;37.252;2022-09-21T10:54:08;99040.50;;;17.46;48.37
46111;BME280;31849;55.992;37.252;2022-09-21T10:59:22;99048.25;;;17.72;47.65
46111;BME280;31849;55.992;37.252;2022-09-21T11:04:41;99046.13;;;17.82;47.48
46111;BME280;31849;55.992;37.252;2022-09-21T11:09:52;99044.13;;;17.89;47.51
46111;BME280;31849;55.992;37.252;2022-09-21T11:15:02;99042.50;;;17.63;46.97
46111;BME280;31849;55.992;37.252;2022-09-21T11:20:20;99046.97;;;17.83;46.70
46111;BME280;31849;55.992;37.252;2022-09-21T11:25:33;99038.47;;;17.76;46.41
46111;BME280;31849;55.992;37.252;2022-09-21T11:30:50;99050.66;;;17.79;46.16
46111;BME280;31849;55.992;37.252;2022-09-21T11:36:02;99039.22;;;17.80;45.00
46111;BME280;31849;55.992;37.252;2022-09-21T11:46:45;99035.97;;;17.97;45.53
46111;BME280;31849;55.992;37.252;2022-09-21T11:52:02;99028.25;;;17.92;45.42
46111;BME280;31849;55.992;37.252;2022-09-21T11:57:15;99026.34;;;17.96;45.16
46111;BME280;31849;55.992;37.252;2022-09-21T12:02:42;99017.03;;;17.87;44.75
46111;BME280;31849;55.992;37.252;2022-09-21T12:08:03;99030.09;;;17.88;45.25
46111;BME280;31849;55.992;37.252;2022-09-21T12:13:19;99018.09;;;17.81;46.35
46111;BME280;31849;55.992;37.252;2022-09-21T12:18:33;99018.41;;;17.73;47.64
46111;BME280;31849;55.992;37.252;2022-09-21T12:23:46;99007.22;;;17.68;48.45
46111;BME280;31849;55.992;37.252;2022-09-21T12:28:53;98999.25;;;17.48;49.34
46111;BME280;31849;55.992;37.252;2022-09-21T12:34:08;99010.44;;;17.29;49.99
46111;BME280;31849;55.992;37.252;2022-09-21T12:39:19;98999.97;;;17.04;50.46
46111;BME280;31849;55.992;37.252;2022-09-21T12:44:31;98998.75;;;16.89;51.11
46111;BME280;31849;55.992;37.252;2022-09-21T12:49:57;99010.56;;;16.76;51.47
46111;BME280;31849;55.992;37.252;2022-09-21T12:55:20;99015.38;;;16.64;52.25
46111;BME280;31849;55.992;37.252;2022-09-21T13:00:29;99023.47;;;16.57;52.50
46111;BME280;31849;55.992;37.252;2022-09-21T13:05:37;99019.59;;;16.42;52.95
46111;BME280;31849;55.992;37.252;2022-09-21T13:10:46;99010.31;;;16.31;53.20
46111;BME280;31849;55.992;37.252;2022-09-21T13:15:59;99000.84;;;16.27;53.95
46111;BME280;31849;55.992;37.252;2022-09-21T13:21:19;98998.06;;;16.05;55.35
46111;BME280;31849;55.992;37.252;2022-09-21T13:26:42;99004.34;;;15.71;56.19
46111;BME280;31849;55.992;37.252;2022-09-21T13:31:55;99016.59;;;15.71;55.62
46111;BME280;31849;55.992;37.252;2022-09-21T13:37:28;99015.78;;;15.69;55.12
46111;BME280;31849;55.992;37.252;2022-09-21T13:42:45;99005.44;;;15.64;55.31
46111;BME280;31849;55.992;37.252;2022-09-21T13:47:51;99006.53;;;15.57;54.89
46111;BME280;31849;55.992;37.252;2022-09-21T13:53:00;99005.91;;;15.48;54.69
46111;BME280;31849;55.992;37.252;2022-09-21T13:58:19;99013.13;;;15.40;55.07
46111;BME280;31849;55.992;37.252;2022-09-21T14:03:25;99010.72;;;15.33;55.33
46111;BME280;31849;55.992;37.252;2022-09-21T14:08:35;99008.13;;;15.33;55.08
46111;BME280;31849;55.992;37.252;2022-09-21T14:13:59;99011.63;;;15.32;55.44
46111;BME280;31849;55.992;37.252;2022-09-21T14:24:49;99003.16;;;14.90;56.12
46111;BME280;31849;55.992;37.252;2022-09-21T14:29:55;98999.16;;;14.77;57.19
46111;BME280;31849;55.992;37.252;2022-09-21T14:35:10;98998.66;;;14.64;57.14
46111;BME280;31849;55.992;37.252;2022-09-21T14:40:21;98998.13;;;14.50;58.26
46111;BME280;31849;55.992;37.252;2022-09-21T14:45:40;98999.53;;;14.29;59.50
46111;BME280;31849;55.992;37.252;2022-09-21T14:50:53;98995.50;;;14.15;59.92
46111;BME280;31849;55.992;37.252;2022-09-21T14:56:20;99005.59;;;13.93;60.22
46111;BME280;31849;55.992;37.252;2022-09-21T15:01:37;99005.84;;;13.84;60.79
46111;BME280;31849;55.992;37.252;2022-09-21T15:06:48;99008.66;;;13.73;61.44
46111;BME280;31849;55.992;37.252;2022-09-21T15:12:18;99003.00;;;13.54;62.16
46111;BME280;31849;55.992;37.252;2022-09-21T15:17:23;99028.66;;;13.35;63.23
46111;BME280;31849;55.992;37.252;2022-09-21T15:22:28;99039.25;;;13.26;64.28
46111;BME280;31849;55.992;37.252;2022-09-21T15:27:34;99028.78;;;12.82;63.92
46111;BME280;31849;55.992;37.252;2022-09-21T15:32:41;99040.69;;;12.45;62.10
46111;BME280;31849;55.992;37.252;2022-09-21T15:37:45;99035.59;;;12.39;61.10
46111;BME280;31849;55.992;37.252;2022-09-21T15:43:00;99032.31;;;12.28;61.91
46111;BME280;31849;55.992;37.252;2022-09-21T15:48:06;99025.00;;;11.95;61.69
46111;BME280;31849;55.992;37.252;2022-09-21T15:53:18;99044.88;;;12.03;65.17
46111;BME280;31849;55.992;37.252;2022-09-21T15:58:30;99063.47;;;11.75;64.82
46111;BME280;31849;55.992;37.252;2022-09-21T16:03:39;99061.56;;;11.88;63.36
46111;BME280;31849;55.992;37.252;2022-09-21T16:08:43;99065.81;;;11.95;63.86
46111;BME280;31849;55.992;37.252;2022-09-21T16:13:57;99069.09;;;12.08;64.46
46111;BME280;31849;55.992;37.252;2022-09-21T16:19:19;99067.38;;;12.07;65.40
46111;BME280;31849;55.992;37.252;2022-09-21T16:24:48;99075.94;;;12.17;66.92
46111;BME280;31849;55.992;37.252;2022-09-21T16:29:55;99075.00;;;12.21;67.09
46111;BME280;31849;55.992;37.252;2022-09-21T16:35:21;99067.28;;;12.14;67.25
46111;BME280;31849;55.992;37.252;2022-09-21T16:40:29;99061.28;;;12.09;67.73
46111;BME280;31849;55.992;37.252;2022-09-21T16:45:37;99063.91;;;12.06;67.98
46111;BME280;31849;55.992;37.252;2022-09-21T16:50:40;99064.78;;;12.07;67.95
46111;BME280;31849;55.992;37.252;2022-09-21T16:55:45;99071.78;;;12.03;68.08
46111;BME280;31849;55.992;37.252;2022-09-21T17:00:53;99070.03;;;12.04;68.15
46111;BME280;31849;55.992;37.252;2022-09-21T17:06:02;99079.72;;;11.95;68.52
46111;BME280;31849;55.992;37.252;2022-09-21T17:11:08;99068.53;;;11.86;68.46
46111;BME280;31849;55.992;37.252;2022-09-21T17:16:13;99074.53;;;11.92;68.27
46111;BME280;31849;55.992;37.252;2022-09-21T17:21:20;99078.13;;;11.84;68.46
46111;BME280;31849;55.992;37.252;2022-09-21T17:26:24;99073.00;;;11.77;68.62
46111;BME280;31849;55.992;37.252;2022-09-21T17:31:31;99082.47;;;11.82;68.50
46111;BME280;31849;55.992;37.252;2022-09-21T17:36:37;99080.91;;;11.68;68.68
46111;BME280;31849;55.992;37.252;2022-09-21T17:41:54;99094.78;;;11.70;69.08
46111;BME280;31849;55.992;37.252;2022-09-21T17:47:09;99097.31;;;11.75;69.04
46111;BME280;31849;55.992;37.252;2022-09-21T17:52:15;99096.47;;;11.76;68.42
46111;BME280;31849;55.992;37.252;2022-09-21T17:57:49;99098.31;;;11.65;69.16
46111;BME280;31849;55.992;37.252;2022-09-21T18:03:00;99099.19;;;11.65;69.24
46111;BME280;31849;55.992;37.252;2022-09-21T18:08:06;99098.38;;;11.60;69.47
46111;BME280;31849;55.992;37.252;2022-09-21T18:13:19;99097.44;;;11.66;69.35
46111;BME280;31849;55.992;37.252;2022-09-21T18:18:39;99097.44;;;11.67;69.09
46111;BME280;31849;55.992;37.252;2022-09-21T18:23:56;99093.94;;;11.68;69.01
46111;BME280;31849;55.992;37.252;2022-09-21T18:29:20;99097.50;;;11.63;68.78
46111;BME280;31849;55.992;37.252;2022-09-21T18:34:54;99094.00;;;11.62;69.01
46111;BME280;31849;55.992;37.252;2022-09-21T18:40:11;99093.16;;;11.61;69.37
46111;BME280;31849;55.992;37.252;2022-09-21T18:45:25;99100.97;;;11.61;68.84
46111;BME280;31849;55.992;37.252;2022-09-21T18:50:36;99100.09;;;11.63;68.21
46111;BME280;31849;55.992;37.252;2022-09-21T18:55:41;99110.50;;;11.63;68.36
46111;BME280;31849;55.992;37.252;2022-09-21T19:00:47;99120.09;;;11.57;68.41
46111;BME280;31849;55.992;37.252;2022-09-21T19:06:07;99119.41;;;11.43;69.26
46111;BME280;31849;55.992;37.252;2022-09-21T19:11:18;99121.16;;;11.41;69.33
46111;BME280;31849;55.992;37.252;2022-09-21T19:16:31;99125.44;;;11.48;69.10
46111;BME280;31849;55.992;37.252;2022-09-21T19:21:41;99130.53;;;11.56;68.81
46111;BME280;31849;55.992;37.252;2022-09-21T19:27:00;99126.03;;;11.72;68.83
46111;BME280;31849;55.992;37.252;2022-09-21T19:32:12;99123.47;;;11.69;68.72
46111;BME280;31849;55.992;37.252;2022-09-21T19:37:19;99125.94;;;11.78;68.61
46111;BME280;31849;55.992;37.252;2022-09-21T19:42:26;99135.44;;;11.82;68.55
46111;BME280;31849;55.992;37.252;2022-09-21T19:47:37;99138.88;;;11.84;68.07
46111;BME280;31849;55.992;37.252;2022-09-21T19:52:45;99130.28;;;11.77;68.28
46111;BME280;31849;55.992;37.252;2022-09-21T19:57:49;99132.97;;;11.71;68.14
46111;BME280;31849;55.992;37.252;2022-09-21T20:03:13;99132.25;;;11.60;68.39
46111;BME280;31849;55.992;37.252;2022-09-21T20:08:23;99126.97;;;11.65;68.33
46111;BME280;31849;55.992;37.252;2022-09-21T20:13:51;99131.28;;;11.67;68.24
46111;BME280;31849;55.992;37.252;2022-09-21T20:19:00;99119.28;;;11.55;68.19
46111;BME280;31849;55.992;37.252;2022-09-21T20:24:15;99121.06;;;11.50;68.57
46111;BME280;31849;55.992;37.252;2022-09-21T20:29:21;99126.25;;;11.50;68.27
46111;BME280;31849;55.992;37.252;2022-09-21T20:34:25;99120.31;;;11.40;68.81
46111;BME280;31849;55.992;37.252;2022-09-21T20:39:30;99111.59;;;11.41;68.94
46111;BME280;31849;55.992;37.252;2022-09-21T20:44:34;99106.47;;;11.37;69.10
46111;BME280;31849;55.992;37.252;2022-09-21T20:49:37;99104.75;;;11.36;68.93
46111;BME280;31849;55.992;37.252;2022-09-21T20:54:43;99101.44;;;11.21;69.61
46111;BME280;31849;55.992;37.252;2022-09-21T20:59:50;99085.88;;;11.17;69.29
46111;BME280;31849;55.992;37.252;2022-09-21T21:04:54;99094.59;;;11.13;69.50
46111;BME280;31849;55.992;37.252;2022-09-21T21:09:59;99089.28;;;11.20;69.49
46111;BME280;31849;55.992;37.252;2022-09-21T21:15:06;99079.78;;;11.18;69.29
46111;BME280;31849;55.992;37.252;2022-09-21T21:20:10;99074.56;;;11.21;69.30
46111;BME280;31849;55.992;37.252;2022-09-21T21:25:16;99079.75;;;11.21;69.35
46111;BME280;31849;55.992;37.252;2022-09-21T21:30:19;99081.59;;;11.09;69.23
46111;BME280;31849;55.992;37.252;2022-09-21T21:35:26;99079.03;;;11.06;69.50
46111;BME280;31849;55.992;37.252;2022-09-21T21:40:34;99079.03;;;11.08;69.81
46111;BME280;31849;55.992;37.252;2022-09-21T21:45:38;99075.56;;;11.09;69.59
46111;BME280;31849;55.992;37.252;2022-09-21T21:50:43;99079.78;;;11.16;69.26
46111;BME280;31849;55.992;37.252;2022-09-21T21:55:50;99079.88;;;11.08;69.90
46111;BME280;31849;55.992;37.252;2022-09-21T22:01:10;99078.19;;;11.07;69.59
46111;BME280;31849;55.992;37.252;2022-09-21T22:06:15;99080.78;;;11.07;69.83
46111;BME280;31849;55.992;37.252;2022-09-21T22:11:21;99070.25;;;11.17;69.50
46111;BME280;31849;55.992;37.252;2022-09-21T22:16:26;99078.78;;;11.30;69.24
46111;BME280;31849;55.992;37.252;2022-09-21T22:21:32;99077.97;;;11.26;69.38
46111;BME280;31849;55.992;37.252;2022-09-21T22:26:40;99079.72;;;11.25;69.35
46111;BME280;31849;55.992;37.252;2022-09-21T22:31:46;99074.50;;;11.25;69.35
46111;BME280;31849;55.992;37.252;2022-09-21T22:36:51;99081.47;;;11.20;69.60
46111;BME280;31849;55.992;37.252;2022-09-21T22:41:56;99082.38;;;11.19;69.89
46111;BME280;31849;55.992;37.252;2022-09-21T22:47:01;99087.53;;;11.24;69.22
46111;BME280;31849;55.992;37.252;2022-09-21T22:52:06;99091.75;;;11.36;68.98
46111;BME280;31849;55.992;37.252;2022-09-21T22:57:12;99086.50;;;11.37;69.05
46111;BME280;31849;55.992;37.252;2022-09-21T23:02:15;99079.63;;;11.32;69.38
46111;BME280;31849;55.992;37.252;2022-09-21T23:07:19;99084.69;;;11.42;69.05
46111;BME280;31849;55.992;37.252;2022-09-21T23:12:24;99086.53;;;11.36;69.28
46111;BME280;31849;55.992;37.252;2022-09-21T23:17:27;99079.47;;;11.44;68.86
46111;BME280;31849;55.992;37.252;2022-09-21T23:22:31;99083.91;;;11.37;69.20
46111;BME280;31849;55.992;37.252;2022-09-21T23:27:36;99076.94;;;11.39;68.97
46111;BME280;31849;55.992;37.252;2022-09-21T23:32:41;99081.28;;;11.40;69.27
46111;BME280;31849;55.992;37.252;2022-09-21T23:37:45;99077.16;;;11.21;69.63
46111;BME280;31849;55.992;37.252;2022-09-21T23:42:50;99078.00;;;11.23;69.71
46111;BME280;31849;55.992;37.252;2022-09-21T23:47:53;99067.78;;;11.07;70.33
46111;BME280;31849;55.992;37.252;2022-09-21T23:52:57;99059.00;;;11.13;69.87
46111;BME280;31849;55.992;37.252;2022-09-21T23:58:03;99065.13;;;11.11;70.06
